Ashland, Montana
Current Conditions -  °F | °C
As of 10:53 PM on Tuesday 21 Oct 2014 (Local Time) from KMLS Reporting Station
Light Rain Light Rain  
Wind Chill: 56°   Ceiling: 9000
Heat Index: 56°   Visibility: 10mi
Dew Point: 44°   Wind: 14mph
Humidity: 64%   Direction: 270°W
Pressure: 29.81"   Gusts: NA
Location:  45.62°N, 106.31°W
Report Text: KMLS 220453Z AUTO 27012KT 10SM -RA OVC090 13/07 A2981 RMK AO2 PK WND 28026/0359 SLP089 P0000 T01330067
Loading
Personal Weather Stations






























Interactive Weather Map New forecast layout! Learn more

10-Day Weather Forecast

Advertisements
Track Severe Weather on mobile